createdAt,value
2017-10-29T00:00:54.480Z,991.10
2017-10-29T00:01:54.694Z,991.08
2017-10-29T00:02:54.426Z,990.99
2017-10-29T00:03:54.400Z,990.96
2017-10-29T00:04:54.368Z,990.77
2017-10-29T00:05:54.347Z,990.74
2017-10-29T00:06:54.320Z,990.75
2017-10-29T00:07:54.306Z,991.04
2017-10-29T00:08:54.265Z,990.72
2017-10-29T00:09:54.236Z,990.63
2017-10-29T00:10:54.211Z,990.49
2017-10-29T00:11:54.185Z,990.79
2017-10-29T00:12:54.156Z,990.74
2017-10-29T00:13:54.140Z,990.78
2017-10-29T00:14:54.104Z,990.71
2017-10-29T00:15:54.081Z,990.34
2017-10-29T00:16:54.054Z,990.64
2017-10-29T00:17:54.028Z,990.47
2017-10-29T00:18:54.005Z,990.51
2017-10-29T00:19:54.225Z,990.84
2017-10-29T00:20:53.954Z,990.55
2017-10-29T00:21:53.921Z,990.63
2017-10-29T00:22:53.894Z,990.59
2017-10-29T00:23:53.866Z,990.74
2017-10-29T00:24:53.846Z,991.02
2017-10-29T00:25:54.067Z,990.31
2017-10-29T00:26:53.791Z,990.69
2017-10-29T00:27:53.767Z,990.51
2017-10-29T00:28:53.736Z,990.53
2017-10-29T00:29:53.719Z,990.45
2017-10-29T00:30:53.686Z,990.47
2017-10-29T00:31:53.669Z,990.08
2017-10-29T00:32:53.641Z,990.44
2017-10-29T00:33:53.606Z,990.27
2017-10-29T00:34:53.580Z,990.62
2017-10-29T00:35:53.558Z,990.10
2017-10-29T00:36:53.524Z,990.23
2017-10-29T00:37:53.501Z,989.67
2017-10-29T00:38:53.473Z,989.86
2017-10-29T00:39:53.449Z,989.63
2017-10-29T00:40:53.422Z,989.77
2017-10-29T00:41:53.400Z,989.89
2017-10-29T00:42:53.371Z,990.02
2017-10-29T00:43:53.341Z,989.48
2017-10-29T00:44:53.317Z,989.99
2017-10-29T00:45:53.290Z,990.00
2017-10-29T00:46:53.263Z,990.00
2017-10-29T00:47:53.235Z,989.99
2017-10-29T00:48:53.460Z,990.35
2017-10-29T00:49:53.183Z,989.95
2017-10-29T00:50:53.168Z,990.08
2017-10-29T00:51:53.137Z,989.85
2017-10-29T00:52:53.109Z,989.76
2017-10-29T00:53:53.084Z,989.63
2017-10-29T00:54:53.310Z,989.71
2017-10-29T00:55:53.025Z,989.78
2017-10-29T00:56:52.995Z,989.73
2017-10-29T00:57:52.969Z,989.82
2017-10-29T00:58:52.947Z,989.61
2017-10-29T00:59:52.920Z,989.65
2017-10-29T01:00:53.199Z,989.61
2017-10-29T01:01:52.868Z,989.64
2017-10-29T01:02:52.847Z,989.54
2017-10-29T01:03:52.838Z,988.88
2017-10-29T01:04:52.797Z,989.26
2017-10-29T01:05:52.767Z,989.14
2017-10-29T01:06:52.733Z,989.23
2017-10-29T01:07:52.708Z,988.86
2017-10-29T01:08:52.689Z,989.13
2017-10-29T01:09:52.655Z,989.27
2017-10-29T01:10:52.629Z,988.75
2017-10-29T01:11:52.610Z,988.78
2017-10-29T01:12:52.578Z,989.05
2017-10-29T01:13:52.566Z,988.85
2017-10-29T01:14:52.531Z,988.40
2017-10-29T01:15:52.499Z,988.10
2017-10-29T01:16:52.478Z,988.74
2017-10-29T01:17:52.461Z,989.14
2017-10-29T01:18:52.425Z,988.76
2017-10-29T01:19:52.402Z,988.24
2017-10-29T01:20:52.371Z,988.57
2017-10-29T01:21:52.349Z,988.68
2017-10-29T01:22:52.316Z,988.97
2017-10-29T01:23:52.291Z,988.99
2017-10-29T01:24:52.545Z,989.08
2017-10-29T01:25:52.240Z,989.06
2017-10-29T01:26:52.216Z,989.09
2017-10-29T01:27:52.185Z,988.90
2017-10-29T01:28:52.164Z,988.75
2017-10-29T01:29:52.139Z,988.59
2017-10-29T01:30:52.108Z,988.56
2017-10-29T01:31:52.087Z,988.36
2017-10-29T01:32:52.051Z,988.24
2017-10-29T01:33:52.034Z,988.37
2017-10-29T01:34:52.008Z,988.49
2017-10-29T01:35:51.975Z,988.43
2017-10-29T01:36:52.254Z,988.28
2017-10-29T01:37:51.924Z,988.62
2017-10-29T01:38:51.902Z,988.15
2017-10-29T01:39:51.879Z,988.71
2017-10-29T01:40:51.845Z,988.34
2017-10-29T01:41:51.832Z,988.74
2017-10-29T01:42:51.803Z,988.61
2017-10-29T01:43:51.775Z,988.53
2017-10-29T01:44:51.741Z,988.38
2017-10-29T01:45:51.728Z,988.76
2017-10-29T01:46:51.701Z,988.79
2017-10-29T01:47:51.663Z,988.89
2017-10-29T01:48:51.650Z,988.64
2017-10-29T01:49:51.610Z,988.74
2017-10-29T01:50:51.586Z,988.68
2017-10-29T01:51:51.557Z,988.60
2017-10-29T01:52:51.792Z,988.77
2017-10-29T01:53:51.515Z,988.98
2017-10-29T01:54:51.477Z,988.65
2017-10-29T01:55:51.456Z,988.75
2017-10-29T01:56:51.426Z,988.68
2017-10-29T01:57:51.404Z,988.09
2017-10-29T01:58:51.378Z,988.65
2017-10-29T01:59:51.353Z,988.54
2017-10-29T02:00:51.324Z,988.74
2017-10-29T02:01:51.298Z,988.63
2017-10-29T02:02:51.270Z,988.70
2017-10-29T02:03:51.243Z,988.84
2017-10-29T02:04:51.520Z,988.61
2017-10-29T02:05:51.191Z,988.70
2017-10-29T02:06:51.167Z,988.59
2017-10-29T02:07:51.140Z,988.83
2017-10-29T02:08:51.120Z,988.84
2017-10-29T02:09:51.076Z,988.83
2017-10-29T02:10:51.062Z,988.58
2017-10-29T02:11:51.027Z,988.70
2017-10-29T02:12:51.005Z,988.56
2017-10-29T02:13:50.972Z,988.58
2017-10-29T02:14:50.951Z,988.52
2017-10-29T02:15:50.920Z,988.67
2017-10-29T02:16:51.140Z,988.06
2017-10-29T02:17:50.878Z,988.43
2017-10-29T02:18:50.846Z,988.34
2017-10-29T02:19:50.817Z,988.32
2017-10-29T02:20:50.788Z,988.33
2017-10-29T02:21:50.758Z,988.28
2017-10-29T02:22:50.735Z,988.32
2017-10-29T02:23:50.707Z,988.53
2017-10-29T02:24:50.680Z,988.49
2017-10-29T02:25:50.648Z,987.78
2017-10-29T02:26:50.624Z,988.69
2017-10-29T02:27:50.609Z,988.23
2017-10-29T02:28:50.566Z,988.68
2017-10-29T02:29:50.544Z,988.09
2017-10-29T02:30:50.520Z,988.54
2017-10-29T02:31:50.491Z,988.63
2017-10-29T02:32:50.462Z,988.56
2017-10-29T02:33:50.440Z,988.83
2017-10-29T02:34:50.411Z,988.58
2017-10-29T02:35:50.385Z,989.06
2017-10-29T02:36:50.355Z,988.90
2017-10-29T02:37:50.334Z,988.65
2017-10-29T02:38:50.301Z,988.98
2017-10-29T02:39:50.273Z,988.75
2017-10-29T02:40:50.550Z,988.70
2017-10-29T02:41:50.218Z,988.60
2017-10-29T02:42:50.194Z,987.36
2017-10-29T02:43:50.163Z,987.83
2017-10-29T02:44:50.139Z,987.63
2017-10-29T02:45:50.107Z,988.43
2017-10-29T02:46:50.385Z,988.71
2017-10-29T02:47:50.064Z,988.71
2017-10-29T02:48:50.027Z,988.68
2017-10-29T02:49:49.998Z,988.28
2017-10-29T02:50:49.977Z,988.22
2017-10-29T02:51:49.949Z,988.66
2017-10-29T02:52:50.190Z,987.54
2017-10-29T02:53:49.893Z,988.70
2017-10-29T02:54:49.871Z,988.50
2017-10-29T02:55:49.843Z,988.75
2017-10-29T02:56:49.818Z,988.63
2017-10-29T02:57:49.781Z,989.06
2017-10-29T02:58:50.065Z,988.52
2017-10-29T02:59:49.735Z,988.36
2017-10-29T03:00:49.698Z,988.62
2017-10-29T03:01:49.681Z,988.67
2017-10-29T03:02:49.643Z,988.95
2017-10-29T03:03:49.632Z,988.81
2017-10-29T03:04:49.843Z,988.30
2017-10-29T03:05:49.565Z,988.10
2017-10-29T03:06:49.535Z,988.96
2017-10-29T03:07:49.509Z,988.81
2017-10-29T03:08:49.483Z,988.79
2017-10-29T03:09:49.456Z,988.17
2017-10-29T03:10:49.442Z,988.91
2017-10-29T03:11:49.406Z,989.26
2017-10-29T03:12:49.371Z,988.86
2017-10-29T03:13:49.345Z,988.76
2017-10-29T03:14:49.314Z,989.02
2017-10-29T03:15:49.289Z,989.17
2017-10-29T03:16:49.565Z,988.81
2017-10-29T03:17:49.235Z,989.05
2017-10-29T03:18:49.203Z,988.59
2017-10-29T03:19:49.173Z,988.85
2017-10-29T03:20:49.155Z,989.11
2017-10-29T03:21:49.122Z,989.17
2017-10-29T03:22:49.101Z,988.66
2017-10-29T03:23:49.062Z,988.84
2017-10-29T03:24:49.041Z,989.24
2017-10-29T03:25:49.006Z,989.23
2017-10-29T03:26:48.979Z,988.88
2017-10-29T03:27:48.956Z,989.18
2017-10-29T03:28:48.922Z,989.42
2017-10-29T03:29:48.899Z,989.15
2017-10-29T03:30:48.877Z,989.04
2017-10-29T03:31:48.844Z,989.28
2017-10-29T03:32:48.814Z,989.06
2017-10-29T03:33:48.788Z,989.35
2017-10-29T03:34:49.008Z,988.99
2017-10-29T03:35:48.730Z,989.30
2017-10-29T03:36:48.707Z,988.77
2017-10-29T03:37:48.679Z,988.85
2017-10-29T03:38:48.652Z,989.04
2017-10-29T03:39:48.623Z,988.95
2017-10-29T03:40:48.591Z,988.59
2017-10-29T03:41:48.569Z,989.14
2017-10-29T03:42:48.543Z,988.77
2017-10-29T03:43:48.514Z,988.85
2017-10-29T03:44:48.489Z,989.09
2017-10-29T03:45:48.458Z,989.31
2017-10-29T03:46:48.436Z,989.02
2017-10-29T03:47:48.401Z,989.06
2017-10-29T03:48:48.376Z,988.84
2017-10-29T03:49:48.345Z,988.94
2017-10-29T03:50:48.325Z,988.93
2017-10-29T03:51:48.645Z,989.58
2017-10-29T03:52:48.265Z,988.99
2017-10-29T03:53:48.242Z,989.05
2017-10-29T03:54:48.217Z,989.23
2017-10-29T03:55:48.186Z,989.02
2017-10-29T03:56:48.173Z,989.49
2017-10-29T03:57:48.431Z,989.57
2017-10-29T03:58:48.107Z,988.99
2017-10-29T03:59:48.090Z,988.05
2017-10-29T04:00:48.053Z,989.12
2017-10-29T04:01:48.017Z,989.69
2017-10-29T04:02:47.990Z,989.01
2017-10-29T04:03:47.972Z,988.85
2017-10-29T04:04:47.945Z,989.50
2017-10-29T04:05:47.912Z,989.42
2017-10-29T04:06:47.879Z,989.17
2017-10-29T04:07:47.859Z,989.17
2017-10-29T04:08:47.827Z,989.44
2017-10-29T04:09:47.797Z,989.35
2017-10-29T04:10:47.768Z,989.31
2017-10-29T04:11:47.745Z,989.21
2017-10-29T04:12:47.719Z,989.26
2017-10-29T04:13:47.702Z,988.96
2017-10-29T04:14:47.667Z,989.41
2017-10-29T04:15:47.630Z,989.10
2017-10-29T04:16:47.610Z,989.03
2017-10-29T04:17:47.577Z,989.57
2017-10-29T04:18:47.555Z,989.33
2017-10-29T04:19:47.525Z,989.57
2017-10-29T04:20:47.508Z,989.56
2017-10-29T04:21:47.469Z,988.30
2017-10-29T04:22:47.441Z,989.48
2017-10-29T04:23:47.415Z,989.11
2017-10-29T04:24:47.387Z,989.51
2017-10-29T04:25:47.358Z,989.74
2017-10-29T04:26:47.330Z,989.53
2017-10-29T04:27:47.302Z,989.43
2017-10-29T04:28:47.274Z,989.09
2017-10-29T04:29:47.254Z,989.50
2017-10-29T04:30:47.225Z,989.10
2017-10-29T04:31:47.197Z,989.09
2017-10-29T04:32:47.468Z,989.70
2017-10-29T04:33:47.142Z,988.95
2017-10-29T04:34:47.115Z,989.33
2017-10-29T04:35:47.093Z,989.22
2017-10-29T04:36:47.057Z,989.58
2017-10-29T04:37:47.033Z,989.45
2017-10-29T04:38:47.252Z,989.23
2017-10-29T04:39:46.981Z,988.99
2017-10-29T04:40:46.943Z,989.05
2017-10-29T04:41:46.929Z,989.20
2017-10-29T04:42:46.893Z,988.89
2017-10-29T04:43:46.869Z,989.57
2017-10-29T04:44:46.838Z,989.06
2017-10-29T04:45:46.808Z,988.60
2017-10-29T04:46:46.778Z,989.47
2017-10-29T04:47:46.755Z,988.59
2017-10-29T04:48:46.726Z,989.13
2017-10-29T04:49:46.707Z,988.90
2017-10-29T04:50:46.669Z,989.28
2017-10-29T04:51:46.640Z,989.03
2017-10-29T04:52:46.613Z,988.70
2017-10-29T04:53:46.585Z,989.82
2017-10-29T04:54:46.565Z,989.48
2017-10-29T04:55:46.543Z,989.45
2017-10-29T04:56:46.508Z,988.61
2017-10-29T04:57:46.477Z,988.82
2017-10-29T04:58:46.448Z,989.54
2017-10-29T04:59:46.426Z,989.89
2017-10-29T05:00:46.413Z,989.17
2017-10-29T05:01:46.368Z,989.30
2017-10-29T05:02:46.343Z,988.93
2017-10-29T05:03:46.323Z,989.36
2017-10-29T05:04:46.296Z,989.73
2017-10-29T05:05:46.262Z,989.77
2017-10-29T05:06:46.236Z,989.38
2017-10-29T05:07:46.205Z,989.23
2017-10-29T05:08:46.183Z,989.07
2017-10-29T05:09:46.150Z,989.45
2017-10-29T05:10:46.129Z,989.10
2017-10-29T05:11:46.100Z,989.34
2017-10-29T05:12:46.071Z,989.13
2017-10-29T05:13:46.048Z,989.46
2017-10-29T05:14:46.024Z,989.35
2017-10-29T05:15:45.988Z,989.30
2017-10-29T05:16:45.961Z,989.66
2017-10-29T05:17:45.941Z,989.55
2017-10-29T05:18:45.910Z,989.61
2017-10-29T05:19:46.136Z,989.30
2017-10-29T05:20:45.853Z,989.56
2017-10-29T05:21:45.831Z,989.77
2017-10-29T05:22:45.809Z,989.89
2017-10-29T05:23:45.774Z,989.56
2017-10-29T05:24:45.747Z,989.34
2017-10-29T05:25:45.723Z,989.46
2017-10-29T05:26:45.699Z,989.15
2017-10-29T05:27:45.671Z,989.96
2017-10-29T05:28:45.641Z,989.88
2017-10-29T05:29:45.615Z,989.46
2017-10-29T05:30:45.589Z,989.25
2017-10-29T05:31:45.813Z,989.87
2017-10-29T05:32:45.527Z,989.96
2017-10-29T05:33:45.505Z,989.85
2017-10-29T05:34:45.482Z,989.20
2017-10-29T05:35:45.452Z,989.90
2017-10-29T05:36:45.431Z,989.56
2017-10-29T05:37:45.408Z,990.08
2017-10-29T05:38:45.369Z,990.28
2017-10-29T05:39:45.338Z,990.29
2017-10-29T05:40:45.310Z,989.95
2017-10-29T05:41:45.297Z,988.85
2017-10-29T05:42:45.258Z,989.44
2017-10-29T05:43:45.236Z,990.21
2017-10-29T05:44:45.205Z,990.30
2017-10-29T05:45:45.180Z,989.83
2017-10-29T05:46:45.151Z,989.24
2017-10-29T05:47:45.120Z,989.92
2017-10-29T05:48:45.098Z,990.40
2017-10-29T05:49:45.371Z,990.10
2017-10-29T05:50:45.047Z,990.37
2017-10-29T05:51:45.015Z,990.54
2017-10-29T05:52:44.986Z,990.69
2017-10-29T05:53:44.963Z,991.11
2017-10-29T05:54:44.937Z,990.34
2017-10-29T05:55:44.911Z,991.13
2017-10-29T05:56:44.882Z,991.24
2017-10-29T05:57:44.848Z,991.18
2017-10-29T05:58:44.822Z,990.50
2017-10-29T05:59:44.794Z,990.95
2017-10-29T06:00:45.026Z,991.28
2017-10-29T06:01:44.743Z,991.01
2017-10-29T06:02:44.729Z,991.24
2017-10-29T06:03:44.687Z,991.65
2017-10-29T06:04:44.661Z,991.72
2017-10-29T06:05:44.632Z,991.63
2017-10-29T06:06:44.865Z,991.31
2017-10-29T06:07:44.585Z,991.45
2017-10-29T06:08:44.552Z,991.73
2017-10-29T06:09:44.525Z,991.55
2017-10-29T06:10:44.493Z,991.43
2017-10-29T06:11:44.472Z,991.84
2017-10-29T06:12:44.443Z,992.03
2017-10-29T06:13:44.410Z,991.82
2017-10-29T06:14:44.387Z,992.20
2017-10-29T06:15:44.359Z,992.19
2017-10-29T06:16:44.327Z,991.83
2017-10-29T06:17:44.303Z,992.10
2017-10-29T06:18:44.279Z,991.99
2017-10-29T06:19:44.255Z,991.06
2017-10-29T06:20:44.222Z,992.39
2017-10-29T06:21:44.197Z,992.02
2017-10-29T06:22:44.167Z,991.96
2017-10-29T06:23:44.140Z,991.68
2017-10-29T06:24:44.112Z,992.48
2017-10-29T06:25:44.094Z,992.76
2017-10-29T06:26:44.059Z,992.71
2017-10-29T06:27:44.026Z,992.68
2017-10-29T06:28:44.001Z,992.51
2017-10-29T06:29:43.977Z,992.47
2017-10-29T06:30:43.958Z,992.64
2017-10-29T06:31:43.929Z,992.62
2017-10-29T06:32:43.903Z,992.76
2017-10-29T06:33:43.865Z,992.85
2017-10-29T06:34:43.835Z,993.19
2017-10-29T06:35:43.816Z,992.52
2017-10-29T06:36:44.030Z,992.55
2017-10-29T06:37:44.061Z,993.05
2017-10-29T06:38:43.939Z,992.92
2017-10-29T06:39:43.702Z,993.60
2017-10-29T06:40:43.684Z,993.12
2017-10-29T06:41:43.650Z,993.34
2017-10-29T06:42:43.621Z,993.22
2017-10-29T06:43:43.600Z,993.48
2017-10-29T06:44:43.576Z,993.44
2017-10-29T06:45:43.537Z,993.75
2017-10-29T06:46:43.512Z,993.63
2017-10-29T06:47:43.485Z,993.92
2017-10-29T06:48:43.457Z,993.51
2017-10-29T06:49:43.429Z,993.88
2017-10-29T06:50:43.400Z,993.94
2017-10-29T06:51:43.374Z,994.05
2017-10-29T06:52:43.347Z,994.11
2017-10-29T06:53:43.321Z,993.90
2017-10-29T06:54:43.293Z,994.06
2017-10-29T06:55:43.270Z,994.22
2017-10-29T06:56:43.236Z,994.09
2017-10-29T06:57:43.208Z,994.30
2017-10-29T06:58:43.184Z,994.30
2017-10-29T06:59:43.159Z,994.55
2017-10-29T07:00:43.132Z,994.67
2017-10-29T07:01:43.102Z,994.57
2017-10-29T07:02:43.079Z,994.49
2017-10-29T07:03:43.046Z,994.60
2017-10-29T07:04:43.033Z,994.72
2017-10-29T07:05:43.606Z,994.70
2017-10-29T07:06:42.972Z,994.62
2017-10-29T07:07:42.966Z,994.79
2017-10-29T07:08:42.911Z,994.92
2017-10-29T07:09:42.901Z,994.89
2017-10-29T07:10:42.858Z,994.85
2017-10-29T07:11:43.085Z,995.03
2017-10-29T07:12:42.804Z,995.19
2017-10-29T07:13:42.789Z,995.27
2017-10-29T07:14:42.753Z,995.20
2017-10-29T07:15:42.727Z,995.15
2017-10-29T07:16:42.703Z,995.25
2017-10-29T07:17:42.672Z,995.38
2017-10-29T07:18:42.650Z,995.05
2017-10-29T07:19:42.623Z,995.26
2017-10-29T07:20:42.605Z,995.26
2017-10-29T07:21:42.567Z,995.83
2017-10-29T07:22:42.547Z,995.96
2017-10-29T07:23:42.514Z,995.76
2017-10-29T07:24:42.482Z,995.92
2017-10-29T07:25:42.456Z,995.51
2017-10-29T07:26:42.431Z,996.11
2017-10-29T07:27:42.418Z,995.61
2017-10-29T07:28:42.375Z,995.53
2017-10-29T07:29:42.359Z,995.09
2017-10-29T07:30:42.330Z,995.43
2017-10-29T07:31:42.298Z,996.25
2017-10-29T07:32:42.278Z,996.77
2017-10-29T07:33:42.251Z,996.88
2017-10-29T07:34:42.526Z,996.75
2017-10-29T07:35:42.194Z,996.68
2017-10-29T07:36:42.167Z,996.83
2017-10-29T07:37:42.178Z,996.19
2017-10-29T07:38:42.114Z,996.10
2017-10-29T07:39:42.090Z,996.38
2017-10-29T07:40:42.870Z,996.34
2017-10-29T07:41:42.038Z,996.79
2017-10-29T07:42:42.021Z,996.19
2017-10-29T07:43:41.992Z,996.47
2017-10-29T07:44:41.958Z,997.23
2017-10-29T07:45:41.937Z,997.21
2017-10-29T07:46:41.911Z,997.31
2017-10-29T07:47:41.880Z,997.22
2017-10-29T07:48:41.858Z,997.35
2017-10-29T07:49:41.835Z,997.28
2017-10-29T07:50:41.805Z,996.71
2017-10-29T07:51:41.783Z,997.03
2017-10-29T07:52:41.760Z,996.79
2017-10-29T07:53:41.730Z,997.08
2017-10-29T07:54:41.702Z,997.32
2017-10-29T07:55:41.683Z,997.39
2017-10-29T07:56:41.662Z,997.25
2017-10-29T07:57:41.878Z,997.16
2017-10-29T07:58:41.603Z,997.41
2017-10-29T07:59:41.581Z,997.49
2017-10-29T08:00:41.555Z,997.36
2017-10-29T08:01:41.528Z,997.60
2017-10-29T08:02:41.505Z,997.64
2017-10-29T08:03:41.487Z,997.66
2017-10-29T08:04:41.458Z,997.49
2017-10-29T08:05:41.429Z,997.83
2017-10-29T08:06:41.405Z,997.87
2017-10-29T08:07:41.378Z,997.90
2017-10-29T08:08:41.361Z,997.87
2017-10-29T08:09:41.349Z,997.82
2017-10-29T08:10:41.306Z,997.84
2017-10-29T08:11:41.280Z,997.68
2017-10-29T08:12:41.259Z,997.85
2017-10-29T08:13:41.232Z,997.73
2017-10-29T08:14:41.211Z,997.91
2017-10-29T08:15:41.195Z,997.83
2017-10-29T08:16:41.193Z,997.99
2017-10-29T08:17:41.140Z,998.07
2017-10-29T08:18:41.114Z,998.05
2017-10-29T08:19:41.097Z,997.84
2017-10-29T08:20:41.072Z,997.96
2017-10-29T08:21:41.041Z,998.01
2017-10-29T08:22:41.025Z,998.12
2017-10-29T08:23:40.996Z,998.25
2017-10-29T08:24:40.965Z,998.19
2017-10-29T08:25:40.958Z,998.22
2017-10-29T08:26:40.924Z,998.35
2017-10-29T08:27:40.898Z,998.40
2017-10-29T08:28:40.876Z,998.38
2017-10-29T08:29:40.850Z,998.29
2017-10-29T08:30:40.827Z,998.46
2017-10-29T08:31:40.807Z,998.39
2017-10-29T08:32:40.776Z,998.30
2017-10-29T08:33:41.007Z,998.44
2017-10-29T08:34:40.733Z,998.49
2017-10-29T08:35:40.704Z,998.41
2017-10-29T08:36:40.684Z,998.47
2017-10-29T08:37:40.658Z,998.34
2017-10-29T08:38:40.641Z,998.15
2017-10-29T08:39:40.616Z,998.62
2017-10-29T08:40:40.594Z,998.36
2017-10-29T08:41:40.564Z,998.56
2017-10-29T08:42:40.555Z,998.59
2017-10-29T08:43:40.525Z,998.69
2017-10-29T08:44:40.499Z,998.70
2017-10-29T08:45:40.777Z,998.49
2017-10-29T08:46:40.455Z,998.71
2017-10-29T08:47:40.434Z,998.84
2017-10-29T08:48:40.413Z,998.85
2017-10-29T08:49:40.399Z,998.82
2017-10-29T08:50:40.359Z,998.75
2017-10-29T08:51:40.341Z,998.81
2017-10-29T08:52:40.323Z,998.98
2017-10-29T08:53:40.294Z,998.84
2017-10-29T08:54:40.278Z,998.76
2017-10-29T08:55:40.252Z,998.96
2017-10-29T08:56:40.226Z,999.03
2017-10-29T08:57:40.202Z,999.06
2017-10-29T08:58:40.177Z,998.99
2017-10-29T08:59:40.156Z,999.00
2017-10-29T09:00:40.135Z,998.96
2017-10-29T09:01:40.110Z,999.20
2017-10-29T09:02:40.095Z,998.51
2017-10-29T09:03:40.322Z,999.19
2017-10-29T09:04:40.053Z,999.61
2017-10-29T09:05:40.026Z,999.21
2017-10-29T09:06:40.002Z,999.46
2017-10-29T09:07:39.974Z,999.50
2017-10-29T09:08:39.960Z,999.40
2017-10-29T09:09:39.933Z,999.46
2017-10-29T09:10:39.908Z,998.75
2017-10-29T09:11:39.886Z,999.45
2017-10-29T09:12:39.866Z,999.19
2017-10-29T09:13:39.839Z,999.68
2017-10-29T09:14:39.841Z,999.64
2017-10-29T09:15:39.816Z,999.74
2017-10-29T09:16:39.776Z,999.71
2017-10-29T09:17:39.761Z,999.66
2017-10-29T09:18:39.730Z,999.68
2017-10-29T09:19:39.741Z,999.72
2017-10-29T09:20:39.689Z,999.52
2017-10-29T09:21:39.668Z,999.38
2017-10-29T09:22:39.653Z,999.87
2017-10-29T09:23:39.622Z,999.63
2017-10-29T09:24:39.603Z,999.73
2017-10-29T09:25:39.926Z,999.92
2017-10-29T09:26:39.566Z,999.92
2017-10-29T09:27:39.531Z,1000.08
2017-10-29T09:28:39.507Z,1000.15
2017-10-29T09:29:39.490Z,999.95
2017-10-29T09:30:39.462Z,1000.31
2017-10-29T09:31:39.435Z,1000.25
2017-10-29T09:32:39.421Z,1000.18
2017-10-29T09:33:39.395Z,1000.09
2017-10-29T09:34:39.372Z,1000.30
2017-10-29T09:35:39.348Z,1000.14
2017-10-29T09:36:39.336Z,1000.45
2017-10-29T09:37:39.566Z,1000.81
2017-10-29T09:38:39.283Z,1000.77
2017-10-29T09:39:39.257Z,1000.47
2017-10-29T09:40:39.236Z,1000.57
2017-10-29T09:41:39.213Z,1000.46
2017-10-29T09:42:39.190Z,1000.40
2017-10-29T09:43:39.173Z,1000.32
2017-10-29T09:44:39.149Z,1000.30
2017-10-29T09:45:39.126Z,1000.00
2017-10-29T09:46:39.095Z,1000.40
2017-10-29T09:47:39.078Z,1000.68
2017-10-29T09:48:39.060Z,1000.78
2017-10-29T09:49:39.337Z,1000.63
2017-10-29T09:50:39.019Z,1000.75
2017-10-29T09:51:38.987Z,999.78
2017-10-29T09:52:38.960Z,1000.87
2017-10-29T09:53:38.934Z,1001.00
2017-10-29T09:54:38.912Z,1000.25
2017-10-29T09:55:39.193Z,1000.84
2017-10-29T09:56:38.866Z,1000.59
2017-10-29T09:57:38.848Z,1000.88
2017-10-29T09:58:38.824Z,1000.79
2017-10-29T09:59:38.805Z,1000.81
2017-10-29T10:00:38.775Z,1001.00
2017-10-29T10:01:38.756Z,1000.88
2017-10-29T10:02:38.733Z,1001.02
2017-10-29T10:03:38.710Z,1000.99
2017-10-29T10:04:38.692Z,1001.02
2017-10-29T10:05:38.660Z,1001.27
2017-10-29T10:06:38.642Z,1001.21
2017-10-29T10:07:38.867Z,1001.34
2017-10-29T10:08:38.595Z,1001.43
2017-10-29T10:09:38.569Z,1001.52
2017-10-29T10:10:38.555Z,1001.00
2017-10-29T10:11:38.536Z,1001.32
2017-10-29T10:12:38.503Z,1001.30
2017-10-29T10:13:38.489Z,1001.47
2017-10-29T10:14:38.460Z,1001.47
2017-10-29T10:15:38.443Z,1001.35
2017-10-29T10:16:38.421Z,1001.49
2017-10-29T10:17:38.393Z,1001.48
2017-10-29T10:18:38.379Z,1001.50
2017-10-29T10:19:38.357Z,1001.51
2017-10-29T10:20:38.333Z,1001.43
2017-10-29T10:21:38.315Z,1001.42
2017-10-29T10:22:38.297Z,1001.70
2017-10-29T10:23:38.292Z,1001.75
2017-10-29T10:24:38.241Z,1001.87
2017-10-29T10:25:38.224Z,1001.83
2017-10-29T10:26:38.196Z,1001.82
2017-10-29T10:27:38.172Z,1001.74
2017-10-29T10:28:38.155Z,1001.99
2017-10-29T10:29:38.135Z,1002.25
2017-10-29T10:30:38.121Z,1001.76
2017-10-29T10:31:38.340Z,1002.39
2017-10-29T10:32:38.068Z,1002.36
2017-10-29T10:33:38.044Z,1001.82
2017-10-29T10:34:38.023Z,1001.74
2017-10-29T10:35:38.005Z,1001.64
2017-10-29T10:36:37.985Z,1001.84
2017-10-29T10:37:37.971Z,1001.78
2017-10-29T10:38:37.944Z,1002.01
2017-10-29T10:39:37.913Z,1002.39
2017-10-29T10:40:37.897Z,1002.13
2017-10-29T10:41:38.126Z,1002.48
2017-10-29T10:42:37.863Z,1002.27
2017-10-29T10:43:37.836Z,1002.66
2017-10-29T10:44:37.807Z,1002.49
2017-10-29T10:45:37.793Z,1002.81
2017-10-29T10:46:37.773Z,1003.04
2017-10-29T10:47:37.745Z,1003.41
2017-10-29T10:48:37.720Z,1002.24
2017-10-29T10:49:37.711Z,1003.22
2017-10-29T10:50:37.688Z,1002.87
2017-10-29T10:51:37.660Z,1003.49
2017-10-29T10:52:37.633Z,1003.17
2017-10-29T10:53:37.916Z,1003.11
2017-10-29T10:54:37.594Z,1003.38
2017-10-29T10:55:37.577Z,1003.26
2017-10-29T10:56:37.559Z,1002.65
2017-10-29T10:57:37.532Z,1003.62
2017-10-29T10:58:37.506Z,1002.33
2017-10-29T10:59:37.489Z,1002.70
2017-10-29T11:00:37.464Z,1002.35
2017-10-29T11:01:37.455Z,1003.40
2017-10-29T11:02:37.426Z,1002.35
2017-10-29T11:03:37.409Z,1002.55
2017-10-29T11:04:37.380Z,1002.55
2017-10-29T11:05:37.630Z,1002.26
2017-10-29T11:06:37.354Z,1003.49
2017-10-29T11:07:37.320Z,1003.72
2017-10-29T11:08:37.298Z,1003.22
2017-10-29T11:09:37.276Z,1002.52
2017-10-29T11:10:37.254Z,1002.94
2017-10-29T11:11:37.243Z,1002.51
2017-10-29T11:12:37.207Z,1003.59
2017-10-29T11:13:37.186Z,1003.81
2017-10-29T11:14:37.161Z,1003.72
2017-10-29T11:15:37.143Z,1003.82
2017-10-29T11:16:37.121Z,1002.70
2017-10-29T11:17:37.101Z,1002.43
2017-10-29T11:18:37.096Z,1003.59
2017-10-29T11:19:37.060Z,1003.52
2017-10-29T11:20:37.041Z,1003.68
2017-10-29T11:21:37.013Z,1003.74
2017-10-29T11:22:36.994Z,1003.30
2017-10-29T11:23:36.973Z,1003.86
2017-10-29T11:24:36.949Z,1003.64
2017-10-29T11:25:36.930Z,1003.45
2017-10-29T11:26:36.901Z,1002.31
2017-10-29T11:27:36.888Z,1001.77
2017-10-29T11:28:36.862Z,1003.64
2017-10-29T11:29:37.144Z,1003.65
2017-10-29T11:30:36.825Z,1003.94
2017-10-29T11:31:36.802Z,1003.73
2017-10-29T11:32:36.781Z,1003.80
2017-10-29T11:33:36.760Z,1003.64
2017-10-29T11:34:36.734Z,1003.76
2017-10-29T11:35:36.970Z,1003.48
2017-10-29T11:36:36.694Z,1003.69
2017-10-29T11:37:36.670Z,1003.85
2017-10-29T11:38:36.644Z,1003.71
2017-10-29T11:39:36.628Z,1003.52
2017-10-29T11:40:36.608Z,1003.77
2017-10-29T11:41:36.838Z,1003.75
2017-10-29T11:42:36.568Z,1003.97
2017-10-29T11:43:36.548Z,1003.88
2017-10-29T11:44:36.524Z,1003.95
2017-10-29T11:45:36.502Z,1004.02
2017-10-29T11:46:36.483Z,1004.07
2017-10-29T11:47:36.464Z,1004.04
2017-10-29T11:48:36.449Z,1004.06
2017-10-29T11:49:36.427Z,1004.12
2017-10-29T11:50:36.403Z,1004.00
2017-10-29T11:51:36.392Z,1003.95
2017-10-29T11:52:36.363Z,1004.00
2017-10-29T11:53:36.337Z,1004.09
2017-10-29T11:54:36.330Z,1004.17
2017-10-29T11:55:36.308Z,1003.42
2017-10-29T11:56:36.283Z,1004.05
2017-10-29T11:57:36.264Z,1004.03
2017-10-29T11:58:36.244Z,1004.09
2017-10-29T11:59:36.217Z,1003.94
2017-10-29T12:00:36.203Z,1004.01
2017-10-29T12:01:36.190Z,1004.32
2017-10-29T12:02:36.164Z,1004.43
2017-10-29T12:03:36.145Z,1004.34
2017-10-29T12:04:36.129Z,1003.85
2017-10-29T12:05:36.456Z,1004.31
2017-10-29T12:06:36.083Z,1004.22
2017-10-29T12:07:36.066Z,1004.24
2017-10-29T12:08:36.046Z,1003.89
2017-10-29T12:09:36.021Z,1003.68
2017-10-29T12:10:36.001Z,1003.84
2017-10-29T12:11:35.986Z,1003.91
2017-10-29T12:12:35.959Z,1003.88
2017-10-29T12:13:35.941Z,1003.74
2017-10-29T12:14:35.920Z,1004.16
2017-10-29T12:15:35.905Z,1004.45
2017-10-29T12:16:36.138Z,1003.94
2017-10-29T12:17:35.861Z,1004.13
2017-10-29T12:18:35.842Z,1003.87
2017-10-29T12:19:35.820Z,1004.10
2017-10-29T12:20:35.795Z,1003.81
2017-10-29T12:21:35.773Z,1003.97
2017-10-29T12:22:36.001Z,1004.00
2017-10-29T12:23:35.724Z,1004.08